createdAt,value
2017-10-12T00:02:22.999Z,4.40
2017-10-12T00:05:25.054Z,4.50
2017-10-12T00:08:27.873Z,5.22
2017-10-12T00:11:30.666Z,4.22
2017-10-12T00:14:33.458Z,4.40
2017-10-12T00:17:35.441Z,3.72
2017-10-12T00:20:37.441Z,3.60
2017-10-12T00:23:40.153Z,3.75
2017-10-12T00:26:42.209Z,3.35
2017-10-12T00:29:44.186Z,3.75
2017-10-12T00:32:46.195Z,7.12
2017-10-12T00:35:48.879Z,3.20
2017-10-12T00:38:51.993Z,2.80
2017-10-12T00:41:54.706Z,3.20
2017-10-12T00:44:56.677Z,3.35
2017-10-12T00:47:58.673Z,7.47
2017-10-12T00:51:00.648Z,2.47
2017-10-12T00:54:02.586Z,2.95
2017-10-12T00:57:04.578Z,3.87
2017-10-12T01:00:08.023Z,3.03
2017-10-12T01:03:10.800Z,3.00
2017-10-12T01:06:13.522Z,4.22
2017-10-12T01:09:16.290Z,2.97
2017-10-12T01:12:18.937Z,4.53
2017-10-12T01:15:21.717Z,4.45
2017-10-12T01:18:23.739Z,3.45
2017-10-12T01:21:27.139Z,3.87
2017-10-12T01:24:29.080Z,4.30
2017-10-12T01:27:31.040Z,4.55
2017-10-12T01:30:33.040Z,4.40
2017-10-12T01:33:34.995Z,5.28
2017-10-12T01:36:38.042Z,5.37
2017-10-12T01:39:42.545Z,5.93
2017-10-12T01:42:44.469Z,6.72
2017-10-12T01:45:46.492Z,6.03
2017-10-12T01:48:58.245Z,6.15
2017-10-12T01:52:00.233Z,6.15
2017-10-12T01:55:02.777Z,6.78
2017-10-12T01:58:05.590Z,6.95
2017-10-12T02:01:07.542Z,8.97
2017-10-12T02:04:09.491Z,7.22
2017-10-12T02:07:11.428Z,7.32
2017-10-12T02:10:13.506Z,6.35
2017-10-12T02:13:16.298Z,6.72
2017-10-12T02:16:20.215Z,6.62
2017-10-12T02:19:22.291Z,7.18
2017-10-12T02:22:24.250Z,7.97
2017-10-12T02:25:26.182Z,7.40
2017-10-12T02:28:28.906Z,10.07
2017-10-12T02:31:30.873Z,9.27
2017-10-12T02:34:33.649Z,9.98
2017-10-12T02:37:36.406Z,9.73
2017-10-12T02:40:38.383Z,10.47
2017-10-12T02:43:40.322Z,11.12
2017-10-12T02:46:43.126Z,11.02
2017-10-12T02:49:45.981Z,12.18
2017-10-12T02:52:48.104Z,11.12
2017-10-12T02:55:50.071Z,11.70
2017-10-12T02:58:52.058Z,12.50
2017-10-12T03:01:54.093Z,12.43
2017-10-12T03:04:56.170Z,13.48
2017-10-12T03:07:58.954Z,13.73
2017-10-12T03:11:00.925Z,14.32
2017-10-12T03:14:03.423Z,14.38
2017-10-12T03:17:05.405Z,15.40
2017-10-12T03:20:08.832Z,16.53
2017-10-12T03:23:10.785Z,15.45
2017-10-12T03:26:12.818Z,13.37
2017-10-12T03:29:14.809Z,14.27
2017-10-12T03:32:16.781Z,14.38
2017-10-12T03:35:18.964Z,14.00
2017-10-12T03:38:21.790Z,14.48
2017-10-12T03:41:23.761Z,13.48
2017-10-12T03:44:25.685Z,13.73
2017-10-12T03:47:28.319Z,11.40
2017-10-12T03:50:30.252Z,10.90
2017-10-12T03:53:32.322Z,12.50
2017-10-12T03:56:34.286Z,14.18
2017-10-12T03:59:37.078Z,11.40
2017-10-12T04:02:41.086Z,11.23
2017-10-12T04:05:43.097Z,10.75
2017-10-12T04:08:45.810Z,12.43
2017-10-12T04:11:47.789Z,8.43
2017-10-12T04:14:49.742Z,9.35
2017-10-12T04:17:51.739Z,12.05
2017-10-12T04:20:54.444Z,9.40
2017-10-12T04:23:57.229Z,9.32
2017-10-12T04:26:59.244Z,13.07
2017-10-12T04:30:01.295Z,7.60
2017-10-12T04:33:03.286Z,8.88
2017-10-12T04:36:07.211Z,7.80
2017-10-12T04:39:09.154Z,8.60
2017-10-12T04:42:11.213Z,11.10
2017-10-12T04:45:13.130Z,6.43
2017-10-12T04:48:15.166Z,7.87
2017-10-12T04:51:17.125Z,8.50
2017-10-12T04:54:19.144Z,13.07
2017-10-12T04:57:21.130Z,11.07
2017-10-12T05:00:23.085Z,7.37
2017-10-12T05:03:25.917Z,9.00
2017-10-12T05:06:27.963Z,11.18
2017-10-12T05:09:30.598Z,7.70
2017-10-12T05:12:32.638Z,6.12
2017-10-12T05:15:34.750Z,11.20
2017-10-12T05:18:37.547Z,12.23
2017-10-12T05:21:40.336Z,7.85
2017-10-12T05:24:42.315Z,8.85
2017-10-12T05:27:44.306Z,4.05
2017-10-12T05:30:46.315Z,9.70
2017-10-12T05:33:48.247Z,6.47
2017-10-12T05:36:50.278Z,13.45
2017-10-12T05:39:52.229Z,12.47
2017-10-12T05:42:54.213Z,6.45
2017-10-12T05:45:56.222Z,13.83
2017-10-12T05:48:58.206Z,10.67
2017-10-12T05:52:00.160Z,6.43
2017-10-12T05:55:02.130Z,7.57
2017-10-12T05:58:04.742Z,11.87
2017-10-12T06:01:06.755Z,13.63
2017-10-12T06:04:08.674Z,14.10
2017-10-12T06:07:10.702Z,16.97
2017-10-12T06:10:13.404Z,13.00
2017-10-12T06:13:16.151Z,8.57
2017-10-12T06:16:18.091Z,8.87
2017-10-12T06:19:20.841Z,11.82
2017-10-12T06:22:22.869Z,9.38
2017-10-12T06:25:25.672Z,9.93
2017-10-12T06:28:28.475Z,10.97
2017-10-12T06:31:31.201Z,10.93
2017-10-12T06:34:33.164Z,19.03
2017-10-12T06:37:35.965Z,8.10
2017-10-12T06:40:38.700Z,12.23
2017-10-12T06:43:40.647Z,12.40
2017-10-12T06:46:43.341Z,9.73
2017-10-12T06:49:46.049Z,13.35
2017-10-12T06:52:48.853Z,7.97
2017-10-12T06:55:51.638Z,10.95
2017-10-12T06:58:55.133Z,11.85
2017-10-12T07:01:57.142Z,11.15
2017-10-12T07:04:59.100Z,10.40
2017-10-12T07:08:01.962Z,18.48
2017-10-12T07:11:03.931Z,14.70
2017-10-12T07:14:06.700Z,8.93
2017-10-12T07:17:08.665Z,12.45
2017-10-12T07:20:10.686Z,6.87
2017-10-12T07:23:13.396Z,14.30
2017-10-12T07:26:16.218Z,8.82
2017-10-12T07:29:18.162Z,8.93
2017-10-12T07:32:21.101Z,15.25
2017-10-12T07:35:23.072Z,13.15
2017-10-12T07:38:26.689Z,6.93
2017-10-12T07:41:29.429Z,11.93
2017-10-12T07:44:31.488Z,10.60
2017-10-12T07:47:33.465Z,13.27
2017-10-12T07:50:36.250Z,10.68
2017-10-12T07:53:39.066Z,8.95
2017-10-12T07:56:41.146Z,11.65
2017-10-12T07:59:43.947Z,12.10
2017-10-12T08:02:46.745Z,10.40
2017-10-12T08:05:48.684Z,9.90
2017-10-12T08:08:51.050Z,13.27
2017-10-12T08:11:52.978Z,11.90
2017-10-12T08:14:55.011Z,13.07
2017-10-12T08:17:56.995Z,7.37
2017-10-12T08:20:59.389Z,9.18
2017-10-12T08:24:01.332Z,13.65
2017-10-12T08:27:03.645Z,8.60
2017-10-12T08:30:05.640Z,5.93
2017-10-12T08:33:19.408Z,6.25
2017-10-12T08:36:21.348Z,10.63
2017-10-12T08:39:24.906Z,10.32
2017-10-12T08:42:26.834Z,10.45
2017-10-12T08:45:28.865Z,7.05
2017-10-12T08:48:31.681Z,7.18
2017-10-12T08:51:34.325Z,11.73
2017-10-12T08:54:36.874Z,13.98
2017-10-12T08:57:40.328Z,10.18
2017-10-12T09:00:42.570Z,9.20
2017-10-12T09:03:45.674Z,11.12
2017-10-12T09:06:48.370Z,9.45
2017-10-12T09:09:50.373Z,10.88
2017-10-12T09:12:53.153Z,10.60
2017-10-12T09:15:56.369Z,12.13
2017-10-12T09:18:58.355Z,7.80
2017-10-12T09:22:00.647Z,8.15
2017-10-12T09:25:02.574Z,6.10
2017-10-12T09:28:04.950Z,8.60
2017-10-12T09:31:06.878Z,10.45
2017-10-12T09:34:08.851Z,10.30
2017-10-12T09:37:10.783Z,11.48
2017-10-12T09:40:13.535Z,9.32
2017-10-12T09:43:15.457Z,8.25
2017-10-12T09:46:18.585Z,8.23
2017-10-12T09:49:20.626Z,10.75
2017-10-12T09:52:22.949Z,15.13
2017-10-12T09:55:25.657Z,6.70
2017-10-12T09:58:27.909Z,5.47
2017-10-12T10:01:29.829Z,7.75
2017-10-12T10:04:31.910Z,12.43
2017-10-12T10:07:33.890Z,10.77
2017-10-12T10:10:36.682Z,3.08
2017-10-12T10:13:39.377Z,7.22
2017-10-12T10:16:41.365Z,7.40
2017-10-12T10:19:44.187Z,12.20
2017-10-12T10:22:46.567Z,8.88
2017-10-12T10:25:49.909Z,10.93
2017-10-12T10:28:52.278Z,12.00
2017-10-12T10:31:54.322Z,8.10
2017-10-12T10:34:56.643Z,6.87
2017-10-12T10:37:59.457Z,8.88
2017-10-12T10:41:01.519Z,7.45
2017-10-12T10:44:03.455Z,6.40
2017-10-12T10:47:05.412Z,6.07
2017-10-12T10:50:07.364Z,9.02
2017-10-12T10:53:09.337Z,8.32
2017-10-12T10:56:11.374Z,13.15
2017-10-12T10:59:13.862Z,5.03
2017-10-12T11:02:15.835Z,8.05
2017-10-12T11:05:18.878Z,6.10
2017-10-12T11:08:20.819Z,10.63
2017-10-12T11:11:23.559Z,5.53
2017-10-12T11:14:25.585Z,4.53
2017-10-12T11:17:27.887Z,4.15
2017-10-12T11:20:30.711Z,6.75
2017-10-12T11:23:32.772Z,8.07
2017-10-12T11:26:34.779Z,5.45
2017-10-12T11:29:36.733Z,12.30
2017-10-12T11:32:38.742Z,6.28
2017-10-12T11:35:40.729Z,6.05
2017-10-12T11:38:42.677Z,5.30
2017-10-12T11:41:44.671Z,8.13
2017-10-12T11:44:46.595Z,8.13
2017-10-12T11:47:48.961Z,6.07
2017-10-12T11:50:50.962Z,6.87
2017-10-12T11:53:53.077Z,6.40
2017-10-12T11:56:55.005Z,11.10
2017-10-12T11:59:57.818Z,6.28
2017-10-12T12:03:00.633Z,8.52
2017-10-12T12:06:02.687Z,6.07
2017-10-12T12:09:04.618Z,3.95
2017-10-12T12:12:06.992Z,6.97
2017-10-12T12:15:08.956Z,5.65
2017-10-12T12:18:12.086Z,12.57
2017-10-12T12:21:14.065Z,7.82
2017-10-12T12:24:16.610Z,8.77
2017-10-12T12:27:18.937Z,9.82
2017-10-12T12:30:21.739Z,4.70
2017-10-12T12:33:24.891Z,7.05
2017-10-12T12:36:26.950Z,5.50
2017-10-12T12:39:28.964Z,6.68
2017-10-12T12:42:31.951Z,3.92
2017-10-12T12:45:33.920Z,6.90
2017-10-12T12:48:36.902Z,6.78
2017-10-12T12:51:38.878Z,8.90
2017-10-12T12:54:40.989Z,5.15
2017-10-12T12:57:43.775Z,5.45
2017-10-12T13:00:46.570Z,7.65
2017-10-12T13:03:48.558Z,8.23
2017-10-12T13:06:50.540Z,6.03
2017-10-12T13:09:54.086Z,7.37
2017-10-12T13:12:56.902Z,10.23
2017-10-12T13:15:58.874Z,6.90
2017-10-12T13:19:01.738Z,5.55
2017-10-12T13:22:03.665Z,8.80
2017-10-12T13:25:05.822Z,4.87
2017-10-12T13:28:07.874Z,4.53
2017-10-12T13:31:10.218Z,8.65
2017-10-12T13:34:12.926Z,7.93
2017-10-12T13:37:16.053Z,9.02
2017-10-12T13:40:18.089Z,8.20
2017-10-12T13:43:20.956Z,9.27
2017-10-12T13:46:23.065Z,4.62
2017-10-12T13:49:25.403Z,6.35
2017-10-12T13:52:28.238Z,6.78
2017-10-12T13:55:30.808Z,8.48
2017-10-12T13:58:33.200Z,6.97
2017-10-12T14:01:35.519Z,7.55
2017-10-12T14:04:37.793Z,10.27
2017-10-12T14:07:40.734Z,12.82
2017-10-12T14:10:42.695Z,17.17
2017-10-12T14:13:44.688Z,7.95
2017-10-12T14:16:46.658Z,9.48
2017-10-12T14:19:48.626Z,12.75
2017-10-12T14:22:51.438Z,5.22
2017-10-12T14:25:53.513Z,9.75
2017-10-12T14:28:56.408Z,8.75
2017-10-12T14:31:58.382Z,6.45
2017-10-12T14:35:00.354Z,8.68
2017-10-12T14:38:02.349Z,9.75
2017-10-12T14:41:05.180Z,6.07
2017-10-12T14:44:07.583Z,4.97
2017-10-12T14:47:09.553Z,5.22
2017-10-12T14:50:12.677Z,7.95
2017-10-12T14:53:14.597Z,8.02
2017-10-12T14:56:16.536Z,11.43
2017-10-12T14:59:18.509Z,8.00
2017-10-12T15:02:21.226Z,6.25
2017-10-12T15:05:23.194Z,6.53
2017-10-12T15:08:25.237Z,7.10
2017-10-12T15:11:27.365Z,5.03
2017-10-12T15:14:30.148Z,5.03
2017-10-12T15:17:32.138Z,8.88
2017-10-12T15:20:35.193Z,6.97
2017-10-12T15:23:37.270Z,5.85
2017-10-12T15:26:39.327Z,8.15
2017-10-12T15:29:42.154Z,14.13
2017-10-12T15:32:45.487Z,5.43
2017-10-12T15:35:47.410Z,6.43
2017-10-12T15:38:50.209Z,6.03
2017-10-12T15:41:52.131Z,5.95
2017-10-12T15:44:54.210Z,4.95
2017-10-12T15:47:56.187Z,9.73
2017-10-12T15:50:58.168Z,9.98
2017-10-12T15:54:00.125Z,5.32
2017-10-12T15:57:02.950Z,3.25
2017-10-12T16:00:04.913Z,6.35
2017-10-12T16:03:07.754Z,3.75
2017-10-12T16:06:09.734Z,9.52
2017-10-12T16:09:11.796Z,9.55
2017-10-12T16:12:14.486Z,6.18
2017-10-12T16:15:16.489Z,8.48
2017-10-12T16:18:19.294Z,5.80
2017-10-12T16:21:22.038Z,9.68
2017-10-12T16:24:24.087Z,14.13
2017-10-12T16:27:26.134Z,7.85
2017-10-12T16:30:28.237Z,5.87
2017-10-12T16:33:31.055Z,7.47
2017-10-12T16:36:33.174Z,10.90
2017-10-12T16:39:35.327Z,7.97
2017-10-12T16:42:38.131Z,10.82
2017-10-12T16:45:40.858Z,7.20
2017-10-12T16:48:42.846Z,7.10
2017-10-12T16:51:44.809Z,4.43
2017-10-12T16:54:46.773Z,7.62
2017-10-12T16:57:49.513Z,7.53
2017-10-12T17:00:52.347Z,8.60
2017-10-12T17:03:54.349Z,11.20
2017-10-12T17:06:56.299Z,6.05
2017-10-12T17:09:58.374Z,5.17
2017-10-12T17:13:01.024Z,8.50
2017-10-12T17:16:03.925Z,7.20
2017-10-12T17:19:06.021Z,6.12
2017-10-12T17:22:08.300Z,7.78
2017-10-12T17:25:10.370Z,6.85
2017-10-12T17:28:13.394Z,8.80
2017-10-12T17:31:15.581Z,11.20
2017-10-12T17:34:18.078Z,10.07
2017-10-12T17:37:20.467Z,8.63
2017-10-12T17:40:22.962Z,4.73
2017-10-12T17:43:25.261Z,5.33
2017-10-12T17:46:28.568Z,9.23
2017-10-12T17:49:30.965Z,10.33
2017-10-12T17:52:33.352Z,10.40
2017-10-12T17:55:35.746Z,12.17
2017-10-12T17:58:38.143Z,7.33
2017-10-12T18:01:40.639Z,10.60
2017-10-12T18:07:45.730Z,7.03
2017-10-12T18:10:48.122Z,8.13
2017-10-12T18:13:50.410Z,5.23
2017-10-12T18:19:54.768Z,8.37
2017-10-12T18:22:57.904Z,5.23
2017-10-12T18:26:00.288Z,5.57
2017-10-12T18:29:02.683Z,6.67
2017-10-12T18:32:04.975Z,5.87
2017-10-12T18:35:07.192Z,8.52
2017-10-12T18:38:09.347Z,10.40
2017-10-12T18:41:12.235Z,6.90
2017-10-12T18:44:14.373Z,15.83
2017-10-12T18:47:16.402Z,25.10
2017-10-12T18:50:18.616Z,47.33
2017-10-12T18:53:21.458Z,27.80
2017-10-12T18:56:23.425Z,12.10
2017-10-12T18:59:25.485Z,9.60
2017-10-12T19:02:28.492Z,15.00
2017-10-12T19:05:31.298Z,8.53
2017-10-12T19:08:33.998Z,5.13
2017-10-12T19:11:36.710Z,5.37
2017-10-12T19:14:39.399Z,7.87
2017-10-12T19:17:42.234Z,9.77
2017-10-12T19:20:44.204Z,7.60
2017-10-12T19:23:46.163Z,6.53
2017-10-12T19:26:48.147Z,8.43
2017-10-12T19:29:50.170Z,7.67
2017-10-12T19:32:52.925Z,10.23
2017-10-12T19:35:54.895Z,8.20
2017-10-12T19:38:56.933Z,13.23
2017-10-12T19:41:58.882Z,5.77
2017-10-12T19:45:01.791Z,6.50
2017-10-12T19:48:05.583Z,12.67
2017-10-12T19:54:09.628Z,6.47
2017-10-12T19:57:11.676Z,11.27
2017-10-12T20:00:14.506Z,11.83
2017-10-12T20:03:16.450Z,13.17
2017-10-12T20:06:18.442Z,14.30
2017-10-12T20:09:21.969Z,12.30
2017-10-12T20:12:24.716Z,8.00
2017-10-12T20:15:26.675Z,13.60
2017-10-12T20:18:29.559Z,7.13
2017-10-12T20:21:32.270Z,4.53
2017-10-12T20:24:34.227Z,14.20
2017-10-12T20:27:37.784Z,12.87
2017-10-12T20:30:39.845Z,12.17
2017-10-12T20:33:42.553Z,8.63
2017-10-12T20:36:45.400Z,8.40
2017-10-12T20:39:47.414Z,9.77
2017-10-12T20:42:49.386Z,9.83
2017-10-12T20:45:51.402Z,7.47
2017-10-12T20:48:53.367Z,8.20
2017-10-12T20:51:55.433Z,8.23
2017-10-12T20:55:12.407Z,8.47
2017-10-12T20:57:59.389Z,9.77
2017-10-12T21:01:01.414Z,7.37
2017-10-12T21:04:04.211Z,7.90
2017-10-12T21:07:07.009Z,7.47
2017-10-12T21:10:09.701Z,12.00
2017-10-12T21:13:11.686Z,10.40
2017-10-12T21:16:13.633Z,11.07
2017-10-12T21:19:15.603Z,6.70
2017-10-12T21:22:17.530Z,7.53
2017-10-12T21:25:19.510Z,7.20
2017-10-12T21:28:21.426Z,7.00
2017-10-12T21:31:24.138Z,13.67
2017-10-12T21:34:26.719Z,14.53
2017-10-12T21:37:30.171Z,8.67
2017-10-12T21:40:32.211Z,8.23
2017-10-12T21:43:35.023Z,7.53
2017-10-12T21:46:37.834Z,10.90
2017-10-12T21:49:39.895Z,10.93
2017-10-12T21:52:41.828Z,13.17
2017-10-12T21:55:43.790Z,6.40
2017-10-12T21:58:45.725Z,11.27
2017-10-12T22:01:47.662Z,4.53
2017-10-12T22:04:49.607Z,7.43
2017-10-12T22:07:52.360Z,13.27
2017-10-12T22:10:54.293Z,11.03
2017-10-12T22:13:57.104Z,25.87
2017-10-12T22:16:59.881Z,10.33
2017-10-12T22:20:01.821Z,7.97
2017-10-12T22:23:03.741Z,8.10
2017-10-12T22:26:05.832Z,7.83
2017-10-12T22:29:07.810Z,7.80
2017-10-12T22:32:09.833Z,8.73
2017-10-12T22:35:11.799Z,17.23
2017-10-12T22:38:14.514Z,11.97
2017-10-12T22:41:16.465Z,6.63
2017-10-12T22:44:19.180Z,5.83
2017-10-12T22:47:21.890Z,9.40
2017-10-12T22:50:23.967Z,7.47
2017-10-12T22:53:26.757Z,14.50
2017-10-12T22:56:28.912Z,12.80
2017-10-12T22:59:30.889Z,9.07
2017-10-12T23:02:32.921Z,11.60
2017-10-12T23:05:35.731Z,9.50
2017-10-12T23:08:38.470Z,8.87
2017-10-12T23:11:40.486Z,11.03
2017-10-12T23:14:42.502Z,6.53
2017-10-12T23:17:44.490Z,10.70
2017-10-12T23:20:46.568Z,7.70
2017-10-12T23:23:49.368Z,22.17
2017-10-12T23:26:52.102Z,13.70
2017-10-12T23:29:54.029Z,23.10
2017-10-12T23:32:56.046Z,27.60
2017-10-12T23:35:57.997Z,20.93
2017-10-12T23:38:59.997Z,23.60
2017-10-12T23:42:02.717Z,17.13
2017-10-12T23:45:05.603Z,26.57
2017-10-12T23:48:07.570Z,21.20
2017-10-12T23:51:10.971Z,23.40
2017-10-12T23:54:13.803Z,12.60
2017-10-12T23:57:16.618Z,20.13
